Time;durP1;ratioP1;P1;durP2;ratioP2;P2;SDS_P1;SDS_P2;PMS_P1;PMS_P2;Temp;Humidity;BMP_temperature;BMP_pressure;BME280_temperature;BME280_humidity;BME280_pressure;Samples;Min_cycle;Max_cycle;Signal;HPM_P1;HPM_P2
2022/09/06 00:03:07;;;;;;;3.53;2.45;;;24.10;54.40;;;;;;5070020;28;20068;-71
2022/09/06 00:05:33;;;;;;;5.35;2.88;;;24.10;54.50;;;;;;5073046;28;20036;-71
2022/09/06 00:08:02;;;;;;;5.18;2.40;;;24.10;54.30;;;;;;5072896;28;20052;-71
2022/09/06 00:10:29;;;;;;;2.72;2.10;;;24.10;54.10;;;;;;5072869;28;20021;-71
2022/09/06 00:12:58;;;;;;;4.68;2.10;;;24.10;54.10;;;;;;5075916;28;20064;-71
2022/09/06 00:15:24;;;;;;;6.75;2.25;;;24.10;54.30;;;;;;5076738;28;20029;-71
2022/09/06 00:17:50;;;;;;;2.53;1.90;;;23.90;54.10;;;;;;5076712;28;20541;-71
2022/09/06 00:20:16;;;;;;;3.42;2.60;;;23.80;54.90;;;;;;5076640;28;20105;-71
2022/09/06 00:22:42;;;;;;;3.13;2.00;;;23.50;55.90;;;;;;5076700;28;20052;-71
2022/09/06 00:25:08;;;;;;;4.53;2.47;;;23.30;56.30;;;;;;5076702;28;20025;-71
2022/09/06 00:27:34;;;;;;;4.07;2.17;;;23.20;56.70;;;;;;5076500;28;20025;-71
2022/09/06 00:29:59;;;;;;;2.45;1.90;;;23.30;56.60;;;;;;5076414;28;20032;-71
2022/09/06 00:32:25;;;;;;;3.05;1.70;;;23.40;56.50;;;;;;5076608;28;20041;-71
2022/09/06 00:34:51;;;;;;;2.80;1.95;;;23.50;56.20;;;;;;5076544;28;20021;-71
2022/09/06 00:37:17;;;;;;;3.65;2.05;;;23.40;56.30;;;;;;5076347;28;20029;-71
2022/09/06 00:39:43;;;;;;;3.35;2.10;;;23.20;56.60;;;;;;5076288;28;20040;-71
2022/09/06 00:42:10;;;;;;;3.17;2.33;;;23.20;57.50;;;;;;5076254;28;20028;-71
2022/09/06 00:44:37;;;;;;;2.65;2.10;;;23.20;57.40;;;;;;5076169;28;20033;-71
2022/09/06 00:47:02;;;;;;;3.47;2.08;;;23.30;57.40;;;;;;5076165;28;20064;-71
2022/09/06 00:49:33;;;;;;;2.97;2.03;;;23.40;57.10;;;;;;5076108;28;20033;-71
2022/09/06 00:52:06;;;;;;;3.60;2.60;;;23.40;57.20;;;;;;5076069;28;20021;-71
2022/09/06 00:54:32;;;;;;;3.33;1.90;;;23.20;57.10;;;;;;5076030;28;20051;-71
2022/09/06 00:56:58;;;;;;;3.65;2.03;;;23.00;57.70;;;;;;5075896;28;20492;-71
2022/09/06 00:59:26;;;;;;;3.72;2.70;;;22.90;59.70;;;;;;5075942;28;20060;-71
2022/09/06 01:01:52;;;;;;;3.80;3.08;;;22.70;60.00;;;;;;5075729;28;20049;-71
2022/09/06 01:04:18;;;;;;;5.47;2.85;;;22.60;60.50;;;;;;5075766;28;20041;-71
2022/09/06 01:07:05;;;;;;;4.43;2.95;;;22.60;61.10;;;;;;5075797;28;20029;-71
2022/09/06 01:10:01;;;;;;;3.88;2.80;;;22.50;62.00;;;;;;5075783;28;20021;-72
2022/09/06 01:12:43;;;;;;;5.13;3.00;;;22.40;63.40;;;;;;5075745;28;20025;-71
2022/09/06 01:15:27;;;;;;;4.00;3.00;;;22.40;63.50;;;;;;5075850;28;20056;-71
2022/09/06 01:18:31;;;;;;;4.45;3.08;;;22.20;63.60;;;;;;5075736;28;20025;-71
2022/09/06 01:21:13;;;;;;;5.60;3.53;;;22.20;64.20;;;;;;5064563;28;20037;-71
2022/09/06 01:23:51;;;;;;;4.65;3.55;;;22.30;65.40;;;;;;5074275;28;20035;-71
2022/09/06 01:26:37;;;;;;;6.30;3.60;;;22.30;64.70;;;;;;5075443;28;20021;-71
2022/09/06 01:29:14;;;;;;;5.72;3.85;;;22.20;65.20;;;;;;5074982;28;20029;-71
2022/09/06 01:31:50;;;;;;;4.22;3.33;;;22.30;66.00;;;;;;5075342;28;20418;-71
2022/09/06 01:34:41;;;;;;;6.82;3.78;;;22.20;66.50;;;;;;5075281;28;20028;-72
2022/09/06 01:37:13;;;;;;;7.63;3.58;;;22.20;66.70;;;;;;5075246;28;20025;-72
2022/09/06 01:39:40;;;;;;;6.43;3.47;;;22.20;66.90;;;;;;5075134;28;20048;-71
2022/09/06 01:42:21;;;;;;;9.05;3.58;;;22.30;66.60;;;;;;5075182;28;20048;-72
2022/09/06 01:44:55;;;;;;;6.25;3.80;;;22.30;66.80;;;;;;5075138;28;20043;-72
2022/09/06 01:47:45;;;;;;;5.28;3.67;;;22.30;67.10;;;;;;5075189;28;20013;-71
2022/09/06 01:50:17;;;;;;;6.38;3.83;;;22.40;67.50;;;;;;5075110;28;20025;-72
2022/09/06 01:53:11;;;;;;;5.40;3.97;;;22.40;67.20;;;;;;5074918;28;20048;-71
2022/09/06 01:55:48;;;;;;;6.18;3.97;;;22.30;66.30;;;;;;5074938;28;20076;-71
2022/09/06 01:58:37;;;;;;;5.65;3.78;;;22.20;67.40;;;;;;5074996;28;20036;-71
2022/09/06 02:01:20;;;;;;;6.40;4.25;;;22.20;67.90;;;;;;5074757;28;20028;-71
2022/09/06 02:04:14;;;;;;;6.07;4.47;;;22.20;67.50;;;;;;5074834;28;20029;-71
2022/09/06 02:06:46;;;;;;;7.25;4.60;;;22.00;67.80;;;;;;5074802;28;20037;-71
2022/09/06 02:09:16;;;;;;;7.35;4.60;;;21.90;69.10;;;;;;5074685;28;20098;-71
2022/09/06 02:11:56;;;;;;;7.00;4.53;;;21.80;69.60;;;;;;5074581;28;20052;-71
2022/09/06 02:14:38;;;;;;;6.85;4.35;;;21.70;69.80;;;;;;5074521;28;20037;-71
2022/09/06 02:17:08;;;;;;;7.25;4.43;;;21.70;69.80;;;;;;5074624;28;20021;-71
2022/09/06 02:19:49;;;;;;;7.05;4.97;;;21.70;70.30;;;;;;5074489;28;20021;-71
2022/09/06 02:22:18;;;;;;;7.32;4.78;;;21.60;70.30;;;;;;5074324;28;20036;-71
2022/09/06 02:24:46;;;;;;;7.07;4.72;;;21.50;70.10;;;;;;5074278;28;20021;-71
2022/09/06 02:27:13;;;;;;;5.40;4.10;;;21.40;70.30;;;;;;5074260;28;20029;-71
2022/09/06 02:29:39;;;;;;;6.35;4.30;;;21.40;70.80;;;;;;5074184;28;20469;-71
2022/09/06 02:32:22;;;;;;;8.30;5.07;;;21.30;70.80;;;;;;5074142;28;20060;-71
2022/09/06 02:34:54;;;;;;;6.85;4.80;;;21.30;71.10;;;;;;5073739;28;20033;-71
2022/09/06 02:37:21;;;;;;;6.75;4.70;;;21.30;70.90;;;;;;5074033;28;20025;-72
2022/09/06 02:39:47;;;;;;;7.30;4.30;;;21.30;70.60;;;;;;5074012;28;20079;-72
2022/09/06 02:42:14;;;;;;;6.18;4.50;;;21.30;70.20;;;;;;5073986;28;20017;-71
2022/09/06 02:44:40;;;;;;;7.25;4.53;;;21.20;69.90;;;;;;5073927;28;20022;-71
2022/09/06 02:47:07;;;;;;;6.32;4.40;;;21.20;70.10;;;;;;5073885;28;20029;-72
2022/09/06 02:49:33;;;;;;;9.55;6.57;;;21.20;70.40;;;;;;5073866;28;20055;-72
2022/09/06 02:51:59;;;;;;;11.35;6.43;;;21.20;70.30;;;;;;5073798;28;20087;-72
2022/09/06 02:54:24;;;;;;;9.40;6.55;;;21.10;70.40;;;;;;5073736;28;20049;-72
2022/09/06 02:56:50;;;;;;;9.50;6.32;;;21.10;70.80;;;;;;5073834;28;20089;-72
2022/09/06 02:59:15;;;;;;;8.90;6.13;;;21.10;71.00;;;;;;5073669;28;20040;-72
2022/09/06 03:01:41;;;;;;;9.77;6.10;;;21.20;70.80;;;;;;5073455;28;20059;-72
2022/09/06 03:04:07;;;;;;;7.40;5.45;;;21.30;70.70;;;;;;5073535;28;20048;-72
2022/09/06 03:06:33;;;;;;;9.20;5.20;;;21.40;71.10;;;;;;5073687;28;20387;-72
2022/09/06 03:08:59;;;;;;;9.98;6.05;;;21.40;69.80;;;;;;5073495;28;20079;-72
2022/09/06 03:11:25;;;;;;;7.18;4.90;;;21.40;69.50;;;;;;5073474;28;20051;-72
2022/09/06 03:13:51;;;;;;;7.20;5.07;;;21.40;69.50;;;;;;5073447;28;20021;-72
2022/09/06 03:16:18;;;;;;;7.70;4.78;;;21.40;69.50;;;;;;5073425;28;20029;-72
2022/09/06 03:18:43;;;;;;;7.00;4.97;;;21.40;69.50;;;;;;5073499;28;20116;-72
2022/09/06 03:21:09;;;;;;;8.25;5.50;;;21.40;69.50;;;;;;5073317;28;20029;-72
2022/09/06 03:23:35;;;;;;;8.00;5.28;;;21.40;69.80;;;;;;5073323;28;20029;-72
2022/09/06 03:26:00;;;;;;;7.30;5.18;;;21.40;70.20;;;;;;5073261;28;20017;-72
2022/09/06 03:28:26;;;;;;;9.57;5.50;;;21.40;70.70;;;;;;5073136;28;20025;-72
2022/09/06 03:30:52;;;;;;;12.88;6.43;;;21.50;71.00;;;;;;5073201;28;20017;-72
2022/09/06 03:33:19;;;;;;;9.10;5.22;;;21.60;70.50;;;;;;5073315;28;20032;-72
2022/09/06 03:35:53;;;;;;;8.35;5.40;;;21.70;70.10;;;;;;5073131;28;20033;-72
2022/09/06 03:38:20;;;;;;;7.25;5.30;;;21.70;69.70;;;;;;5073209;28;20028;-72
2022/09/06 03:40:47;;;;;;;8.18;5.47;;;21.60;69.50;;;;;;5073075;28;20408;-72
2022/09/06 03:43:14;;;;;;;9.40;5.68;;;21.70;69.50;;;;;;5073007;28;20025;-72
2022/09/06 03:45:43;;;;;;;6.75;5.07;;;21.70;69.20;;;;;;5073094;28;20044;-72
2022/09/06 03:48:09;;;;;;;7.70;5.43;;;21.80;69.10;;;;;;5076736;28;20087;-72
2022/09/06 03:50:34;;;;;;;6.70;5.30;;;21.70;68.80;;;;;;5077214;28;20029;-72
2022/09/06 03:53:00;;;;;;;10.40;5.50;;;21.70;69.10;;;;;;5077151;28;20033;-72
2022/09/06 03:55:25;;;;;;;6.65;5.10;;;21.70;68.90;;;;;;5077112;28;20088;-72
2022/09/06 03:57:51;;;;;;;8.93;5.57;;;21.50;69.50;;;;;;5077199;28;20029;-72
2022/09/06 04:00:16;;;;;;;8.00;5.13;;;21.50;69.80;;;;;;5077044;28;20033;-72
2022/09/06 04:02:42;;;;;;;7.15;5.00;;;21.50;69.80;;;;;;5076793;28;20064;-72
2022/09/06 04:05:08;;;;;;;8.00;5.38;;;21.40;69.90;;;;;;5077063;28;20496;-72
2022/09/06 04:07:36;;;;;;;6.72;5.28;;;21.40;70.30;;;;;;5077025;28;20029;-73
2022/09/06 04:10:02;;;;;;;6.80;5.00;;;21.40;69.80;;;;;;5076889;28;20088;-73
2022/09/06 04:12:28;;;;;;;6.18;4.68;;;21.40;69.60;;;;;;5076817;28;20115;-73
2022/09/06 04:14:54;;;;;;;6.68;5.18;;;21.40;69.40;;;;;;5076757;28;20028;-72
2022/09/06 04:17:19;;;;;;;11.82;5.68;;;21.10;69.80;;;;;;5076715;28;20088;-73
2022/09/06 04:19:45;;;;;;;7.55;5.05;;;21.10;70.10;;;;;;5076689;28;20025;-73
2022/09/06 04:22:10;;;;;;;6.57;5.20;;;21.20;69.80;;;;;;5076627;28;20055;-72
2022/09/06 04:24:36;;;;;;;8.10;4.82;;;21.10;70.00;;;;;;5076504;28;20063;-72
2022/09/06 04:27:03;;;;;;;6.45;4.97;;;21.10;69.50;;;;;;5076480;28;20033;-72
2022/09/06 04:29:28;;;;;;;8.38;5.10;;;20.80;69.60;;;;;;5076391;28;20033;-72
2022/09/06 04:31:54;;;;;;;6.47;4.72;;;20.60;70.30;;;;;;5076601;28;20048;-72
2022/09/06 04:34:20;;;;;;;8.77;5.53;;;20.60;70.00;;;;;;5076362;28;20036;-72
2022/09/06 04:36:45;;;;;;;8.40;5.38;;;20.60;69.80;;;;;;5076382;28;20021;-72
2022/09/06 04:39:11;;;;;;;6.78;5.25;;;20.60;70.00;;;;;;5076306;28;20074;-73
2022/09/06 04:41:36;;;;;;;7.05;5.07;;;20.70;70.20;;;;;;5076269;28;20029;-72
2022/09/06 04:44:02;;;;;;;8.48;4.70;;;20.70;70.10;;;;;;5076131;28;20040;-72
2022/09/06 04:46:29;;;;;;;7.47;5.30;;;20.50;69.80;;;;;;5076188;28;20021;-72
2022/09/06 04:48:56;;;;;;;7.60;5.30;;;20.40;70.70;;;;;;5076144;28;20041;-72
2022/09/06 04:51:23;;;;;;;6.75;5.18;;;20.30;71.00;;;;;;5076102;28;20017;-72
2022/09/06 04:53:48;;;;;;;5.88;4.68;;;20.30;70.80;;;;;;5076031;28;20112;-72
2022/09/06 04:56:17;;;;;;;6.50;4.57;;;20.40;70.60;;;;;;5076020;28;20063;-72
2022/09/06 04:58:44;;;;;;;7.28;5.20;;;20.30;70.30;;;;;;5075668;28;20031;-72
2022/09/06 05:01:10;;;;;;;7.43;4.90;;;20.30;70.80;;;;;;5075705;28;20029;-72
2022/09/06 05:03:36;;;;;;;6.68;3.80;;;20.30;70.70;;;;;;5075989;28;20060;-73
2022/09/06 05:06:10;;;;;;;5.43;3.95;;;20.20;70.60;;;;;;5075780;28;20032;-72
2022/09/06 05:08:37;;;;;;;4.43;3.17;;;20.20;70.50;;;;;;5075813;28;20055;-73
2022/09/06 05:11:02;;;;;;;5.32;3.72;;;20.20;70.50;;;;;;5075876;28;20021;-73
2022/09/06 05:13:28;;;;;;;5.05;4.20;;;20.30;70.50;;;;;;5075780;28;20089;-73
2022/09/06 05:15:54;;;;;;;7.90;5.00;;;20.40;70.40;;;;;;5075598;28;20039;-73
2022/09/06 05:18:19;;;;;;;6.38;4.10;;;20.30;69.80;;;;;;5075579;28;20067;-73
2022/09/06 05:20:51;;;;;;;5.53;4.07;;;20.20;69.70;;;;;;5075533;28;20075;-72
2022/09/06 05:23:16;;;;;;;7.33;5.23;;;20.20;69.60;;;;;;5075493;28;20032;-73
2022/09/06 05:25:42;;;;;;;7.05;5.07;;;20.10;69.80;;;;;;5075403;28;20343;-73
2022/09/06 05:28:07;;;;;;;8.70;5.50;;;20.00;69.80;;;;;;5075325;28;20028;-73
2022/09/06 05:30:33;;;;;;;7.20;5.95;;;19.90;70.10;;;;;;5075308;28;20036;-72
2022/09/06 05:32:59;;;;;;;8.23;6.13;;;19.90;71.30;;;;;;5075270;28;20037;-72
2022/09/06 05:35:24;;;;;;;9.15;6.20;;;19.80;71.90;;;;;;5075261;28;20025;-72
2022/09/06 05:37:50;;;;;;;10.75;6.25;;;19.60;72.30;;;;;;5075199;28;20029;-72
2022/09/06 05:40:15;;;;;;;10.95;6.63;;;19.60;72.70;;;;;;5075161;28;20033;-72
2022/09/06 05:42:41;;;;;;;9.77;6.88;;;19.70;72.90;;;;;;5075041;28;20060;-71
2022/09/06 05:45:07;;;;;;;13.25;6.57;;;19.80;72.70;;;;;;5075083;28;20084;-71
2022/09/06 05:47:34;;;;;;;10.30;6.80;;;19.90;72.50;;;;;;5075009;28;20025;-72
2022/09/06 05:50:01;;;;;;;13.27;7.45;;;19.90;72.50;;;;;;5075000;28;20039;-72
2022/09/06 05:52:27;;;;;;;12.77;7.05;;;19.90;72.60;;;;;;5074960;28;20029;-71
2022/09/06 05:54:52;;;;;;;10.30;7.32;;;19.90;72.80;;;;;;5074926;28;20096;-72
2022/09/06 05:57:18;;;;;;;11.77;7.60;;;20.00;72.60;;;;;;5074963;28;20033;-72
2022/09/06 05:59:44;;;;;;;12.88;7.75;;;20.10;72.10;;;;;;5074944;28;20048;-72
2022/09/06 06:02:09;;;;;;;9.95;7.45;;;20.10;72.10;;;;;;5074575;28;20083;-72
2022/09/06 06:04:35;;;;;;;12.43;8.20;;;20.10;72.30;;;;;;5074780;28;20059;-72
2022/09/06 06:07:01;;;;;;;12.73;7.72;;;20.10;72.10;;;;;;5074783;28;20029;-72
2022/09/06 06:09:26;;;;;;;10.48;8.00;;;20.20;72.10;;;;;;5072967;28;20112;-71
2022/09/06 06:11:52;;;;;;;12.15;8.60;;;20.20;72.20;;;;;;5073607;28;20025;-72
2022/09/06 06:14:17;;;;;;;13.43;8.52;;;20.20;72.40;;;;;;5074549;28;20033;-72
2022/09/06 06:16:43;;;;;;;12.45;8.40;;;20.30;72.10;;;;;;5074506;28;20025;-72
2022/09/06 06:19:09;;;;;;;12.40;8.27;;;20.40;71.90;;;;;;5074543;28;20484;-72
2022/09/06 06:21:37;;;;;;;12.15;8.88;;;20.40;71.90;;;;;;5074384;28;20032;-71
2022/09/06 06:24:04;;;;;;;12.18;7.97;;;20.40;72.20;;;;;;5074275;28;20046;-72
2022/09/06 06:26:32;;;;;;;13.82;8.45;;;20.40;72.40;;;;;;5074258;28;20021;-71
2022/09/06 06:29:00;;;;;;;12.48;8.18;;;20.40;72.30;;;;;;5074250;28;20044;-71
2022/09/06 06:31:27;;;;;;;11.95;8.15;;;20.40;72.10;;;;;;5074193;28;20040;-72
2022/09/06 06:33:53;;;;;;;12.13;8.40;;;20.50;72.00;;;;;;5074114;28;20040;-71
2022/09/06 06:36:21;;;;;;;13.20;8.65;;;20.50;71.70;;;;;;5073033;28;20033;-72
2022/09/06 06:38:48;;;;;;;14.38;9.02;;;20.50;72.00;;;;;;5074061;28;20021;-71
2022/09/06 06:41:17;;;;;;;13.52;9.40;;;20.60;71.70;;;;;;5074003;28;20063;-71
2022/09/06 06:43:42;;;;;;;14.00;9.38;;;20.60;72.00;;;;;;5072898;28;20028;-71
2022/09/06 06:46:17;;;;;;;12.75;9.32;;;20.60;72.20;;;;;;5074073;28;20032;-71
2022/09/06 06:48:44;;;;;;;13.65;10.13;;;20.60;72.40;;;;;;5073913;28;20021;-71
2022/09/06 06:51:15;;;;;;;17.77;11.10;;;20.70;72.40;;;;;;5073808;28;20025;-71
2022/09/06 06:53:42;;;;;;;16.92;10.38;;;20.70;72.20;;;;;;5073833;28;20029;-72
2022/09/06 06:56:29;;;;;;;15.10;10.40;;;20.80;72.10;;;;;;5073769;28;20025;-71
2022/09/06 06:58:58;;;;;;;13.50;10.02;;;20.90;71.60;;;;;;5073780;28;20079;-73
2022/09/06 07:01:25;;;;;;;14.30;9.38;;;20.80;72.00;;;;;;5073517;28;20049;-72
2022/09/06 07:03:51;;;;;;;15.68;9.68;;;20.90;71.90;;;;;;5073610;28;20468;-71
2022/09/06 07:06:18;;;;;;;14.15;9.10;;;20.90;71.50;;;;;;5073599;28;20021;-72
2022/09/06 07:08:43;;;;;;;13.00;9.48;;;21.00;71.30;;;;;;5073565;28;20080;-71
2022/09/06 07:11:12;;;;;;;13.85;8.90;;;21.00;71.30;;;;;;5073494;28;20039;-72
2022/09/06 07:13:38;;;;;;;13.13;8.98;;;21.10;71.20;;;;;;5073507;28;20025;-71
2022/09/06 07:16:21;;;;;;;13.27;8.50;;;21.20;71.20;;;;;;5073440;28;20056;-71
2022/09/06 07:18:53;;;;;;;13.65;9.00;;;21.20;71.40;;;;;;5073390;28;20032;-72
2022/09/06 07:21:25;;;;;;;11.02;7.78;;;21.30;71.90;;;;;;5073510;28;20053;-72
2022/09/06 07:23:54;;;;;;;11.90;7.50;;;21.30;70.10;;;;;;5073368;28;20025;-72
2022/09/06 07:26:27;;;;;;;10.98;7.97;;;21.40;70.40;;;;;;5073307;28;20055;-72
2022/09/06 07:28:56;;;;;;;12.80;6.60;;;21.40;70.20;;;;;;5073245;28;20395;-72
2022/09/06 07:31:21;;;;;;;12.18;7.32;;;21.50;69.20;;;;;;5073235;28;20017;-72
2022/09/06 07:33:48;;;;;;;10.05;6.78;;;21.50;69.00;;;;;;5073197;28;20047;-71
2022/09/06 07:36:13;;;;;;;9.10;6.75;;;21.50;68.50;;;;;;5073151;28;20025;-72
2022/09/06 07:38:39;;;;;;;10.85;6.57;;;21.60;68.90;;;;;;5072083;28;20061;-71
2022/09/06 07:41:07;;;;;;;9.57;6.47;;;21.70;68.90;;;;;;5073301;28;20037;-71
2022/09/06 07:43:33;;;;;;;14.30;6.68;;;21.70;68.50;;;;;;5073020;28;20036;-71
2022/09/06 07:46:10;;;;;;;10.75;6.43;;;21.70;68.10;;;;;;5073074;28;20047;-71
2022/09/06 07:48:38;;;;;;;9.05;6.65;;;21.80;67.80;;;;;;5073116;28;20029;-72
2022/09/06 07:51:06;;;;;;;9.57;6.28;;;22.00;68.20;;;;;;5073036;28;20028;-71
2022/09/06 07:53:31;;;;;;;8.43;5.63;;;22.00;67.50;;;;;;5073025;28;20036;-71
2022/09/06 07:56:01;;;;;;;9.02;6.25;;;22.10;67.00;;;;;;5073051;28;20021;-71
2022/09/06 07:58:28;;;;;;;9.85;6.75;;;22.10;67.00;;;;;;5073076;28;20025;-72
2022/09/06 08:01:12;;;;;;;12.80;6.57;;;22.20;67.60;;;;;;5072972;28;20033;-72
2022/09/06 08:03:37;;;;;;;9.20;6.25;;;22.30;68.30;;;;;;5072916;28;20037;-71
2022/09/06 08:06:03;;;;;;;10.35;6.63;;;22.30;66.10;;;;;;5072911;28;20055;-72
2022/09/06 08:08:29;;;;;;;10.52;5.93;;;22.40;65.60;;;;;;5072901;28;20037;-71
2022/09/06 08:10:55;;;;;;;9.15;6.03;;;22.50;65.40;;;;;;5072881;28;20013;-72
2022/09/06 08:13:21;;;;;;;9.27;6.22;;;22.60;65.40;;;;;;5072837;28;20089;-72
2022/09/06 08:15:46;;;;;;;13.57;7.07;;;22.70;65.40;;;;;;5072836;28;20033;-72
2022/09/06 08:18:12;;;;;;;12.48;6.20;;;22.80;65.60;;;;;;5072804;28;20033;-72
2022/09/06 08:20:37;;;;;;;9.98;5.88;;;22.90;65.20;;;;;;5072881;28;20488;-72
2022/09/06 08:23:09;;;;;;;11.23;5.63;;;23.10;64.90;;;;;;5072649;28;20059;-72
2022/09/06 08:25:34;;;;;;;7.17;5.60;;;23.10;63.10;;;;;;5072799;28;20384;-72
2022/09/06 08:28:00;;;;;;;8.93;5.45;;;23.20;63.50;;;;;;5072748;28;20279;-72
2022/09/06 08:30:27;;;;;;;6.35;5.22;;;23.20;63.30;;;;;;5072672;28;20025;-72
2022/09/06 08:32:53;;;;;;;7.68;5.13;;;23.30;62.70;;;;;;5074120;28;20047;-72
2022/09/06 08:35:19;;;;;;;9.88;5.00;;;23.50;62.50;;;;;;5075468;28;20041;-72
2022/09/06 08:37:44;;;;;;;6.25;4.00;;;23.60;60.90;;;;;;5076369;28;20029;-71
2022/09/06 08:40:11;;;;;;;6.97;3.72;;;23.60;61.50;;;;;;5076331;28;20087;-72
2022/09/06 08:42:38;;;;;;;4.60;3.63;;;23.70;61.10;;;;;;5076248;28;20017;-71
2022/09/06 08:45:09;;;;;;;4.63;2.88;;;23.70;60.20;;;;;;5076242;28;20029;-71
2022/09/06 08:47:35;;;;;;;4.20;3.22;;;23.80;60.10;;;;;;5076397;28;20028;-72
2022/09/06 08:50:06;;;;;;;3.55;2.67;;;23.90;59.40;;;;;;5076329;28;20021;-71
2022/09/06 08:52:58;;;;;;;4.57;3.08;;;24.00;57.40;;;;;;5076084;28;20028;-72
2022/09/06 08:56:00;;;;;;;7.28;3.15;;;24.10;58.20;;;;;;5076082;28;20028;-71
2022/09/06 08:58:58;;;;;;;4.78;2.63;;;24.20;57.40;;;;;;5054163;28;20033;-71
2022/09/06 09:01:31;;;;;;;4.32;3.03;;;24.20;56.60;;;;;;5075791;28;20045;-72
2022/09/06 09:04:01;;;;;;;5.07;3.25;;;24.10;56.80;;;;;;5076011;28;20078;-72
2022/09/06 09:06:29;;;;;;;5.50;2.70;;;24.20;56.50;;;;;;5075954;28;20021;-72
2022/09/06 09:09:09;;;;;;;5.07;3.00;;;24.30;56.60;;;;;;5075845;28;20028;-72
2022/09/06 09:11:37;;;;;;;6.40;3.05;;;24.30;58.00;;;;;;5075799;28;20021;-71
2022/09/06 09:14:09;;;;;;;5.78;3.30;;;24.50;57.30;;;;;;5075695;28;20029;-72
2022/09/06 09:16:35;;;;;;;6.50;4.00;;;24.60;57.50;;;;;;5075882;28;20029;-72
2022/09/06 09:19:03;;;;;;;6.70;2.92;;;24.70;56.30;;;;;;5075654;28;20036;-72
2022/09/06 09:21:32;;;;;;;4.18;3.08;;;24.80;56.60;;;;;;5075490;28;20089;-71
2022/09/06 09:24:04;;;;;;;4.47;3.17;;;24.90;56.10;;;;;;5075470;28;20025;-72
2022/09/06 09:26:35;;;;;;;4.55;3.03;;;25.00;56.90;;;;;;5075578;28;20045;-71
2022/09/06 09:29:10;;;;;;;4.63;2.45;;;25.00;56.20;;;;;;5075431;28;20021;-71
2022/09/06 09:31:42;;;;;;;4.00;2.63;;;25.10;54.30;;;;;;5075424;28;20032;-71
2022/09/06 09:34:32;;;;;;;4.72;1.95;;;25.20;55.20;;;;;;5075342;28;20032;-71
2022/09/06 09:37:10;;;;;;;4.38;2.40;;;25.20;55.30;;;;;;5074962;28;20041;-71
2022/09/06 09:39:38;;;;;;;2.90;2.13;;;25.30;53.00;;;;;;5075241;28;20025;-71
2022/09/06 09:42:04;;;;;;;3.90;2.20;;;25.30;55.00;;;;;;5075199;28;20050;-71
2022/09/06 09:44:30;;;;;;;5.65;2.90;;;25.40;54.30;;;;;;5073946;28;20088;-71
2022/09/06 09:46:56;;;;;;;5.15;2.65;;;25.40;54.60;;;;;;5075103;28;20025;-71
2022/09/06 09:49:23;;;;;;;3.47;2.60;;;25.40;54.30;;;;;;5075050;28;20036;-71
2022/09/06 09:52:05;;;;;;;4.72;2.10;;;25.50;52.90;;;;;;5075009;28;20017;-71
2022/09/06 09:54:32;;;;;;;;;;;25.60;53.20;;;;;;5075355;28;20472;-71
2022/09/06 09:56:58;;;;;;;5.20;2.50;;;25.60;52.30;;;;;;5074913;28;19980;-71
2022/09/06 09:59:44;;;;;;;6.32;3.30;;;25.50;52.40;;;;;;5074845;28;20033;-72
2022/09/06 10:02:23;;;;;;;3.72;2.80;;;25.70;52.50;;;;;;5074572;28;20072;-71
2022/09/06 10:04:52;;;;;;;6.20;2.50;;;25.70;53.20;;;;;;5074688;28;20487;-71
2022/09/06 10:07:22;;;;;;;3.70;2.97;;;25.80;53.00;;;;;;5074587;28;20021;-71
2022/09/06 10:09:59;;;;;;;6.05;2.70;;;26.00;53.10;;;;;;5074844;28;20051;-71
2022/09/06 10:12:32;;;;;;;3.92;2.40;;;26.10;52.50;;;;;;5074677;28;20049;-71
2022/09/06 10:14:58;;;;;;;4.88;2.65;;;26.20;54.10;;;;;;5074582;28;20051;-71
2022/09/06 10:17:37;;;;;;;5.07;3.00;;;26.30;52.10;;;;;;5074420;28;20025;-71
2022/09/06 10:20:09;;;;;;;6.53;2.92;;;26.30;51.20;;;;;;5074384;28;20171;-71
2022/09/06 10:23:00;;;;;;;3.80;2.80;;;26.30;50.40;;;;;;5074389;28;20024;-71
2022/09/06 10:25:45;;;;;;;6.50;2.75;;;26.40;52.10;;;;;;5074531;28;20032;-71
2022/09/06 10:28:26;;;;;;;3.58;2.30;;;26.50;50.70;;;;;;5074259;28;20048;-71
2022/09/06 10:31:04;;;;;;;4.07;2.80;;;26.60;50.80;;;;;;5074393;28;20027;-71
2022/09/06 10:33:58;;;;;;;4.68;2.55;;;26.70;49.90;;;;;;5074370;28;20024;-70
2022/09/06 10:36:50;;;;;;;4.75;3.10;;;26.70;51.80;;;;;;5074139;28;20029;-70
2022/09/06 10:39:44;;;;;;;5.00;3.08;;;26.80;51.30;;;;;;5073244;28;20024;-71
2022/09/06 10:42:40;;;;;;;3.88;2.00;;;26.80;50.60;;;;;;5074050;28;20036;-70
2022/09/06 10:45:43;;;;;;;7.80;2.92;;;26.90;50.70;;;;;;5074026;28;20102;-71
2022/09/06 10:48:25;;;;;;;4.78;2.50;;;26.90;49.60;;;;;;5074084;28;20101;-71
2022/09/06 10:51:19;;;;;;;3.20;2.30;;;26.90;50.30;;;;;;5073915;28;20017;-71
2022/09/06 10:54:09;;;;;;;6.68;2.72;;;27.00;50.10;;;;;;5073880;28;20040;-71
2022/09/06 10:56:44;;;;;;;4.65;2.25;;;27.10;49.70;;;;;;5070654;28;20033;-71
2022/09/06 10:59:27;;;;;;;4.40;2.67;;;27.20;50.70;;;;;;5073751;28;20032;-71
2022/09/06 11:02:11;;;;;;;5.18;2.38;;;27.30;48.80;;;;;;5073464;28;20072;-70
2022/09/06 11:04:39;;;;;;;3.75;2.50;;;27.30;49.80;;;;;;5073640;28;20055;-70
2022/09/06 11:07:27;;;;;;;4.20;2.65;;;27.20;49.00;;;;;;5073610;28;20028;-70
2022/09/06 11:10:17;;;;;;;5.88;2.25;;;27.20;48.30;;;;;;5073569;28;20025;-70
2022/09/06 11:12:48;;;;;;;4.90;2.78;;;27.30;49.50;;;;;;5073534;28;20039;-71
2022/09/06 11:15:16;;;;;;;3.80;2.72;;;27.40;49.90;;;;;;5073501;28;20080;-70
2022/09/06 11:17:57;;;;;;;5.43;2.30;;;27.50;50.30;;;;;;5073475;28;20019;-70
2022/09/06 11:20:34;;;;;;;3.70;2.28;;;27.60;50.50;;;;;;5073483;28;20053;-70
2022/09/06 11:23:06;;;;;;;2.72;2.10;;;27.80;50.70;;;;;;5073348;28;20033;-70
2022/09/06 11:26:17;;;;;;;3.08;1.90;;;27.90;50.30;;;;;;5073510;28;20027;-70
2022/09/06 11:28:47;;;;;;;4.10;2.50;;;28.00;50.90;;;;;;5063249;28;20029;-70
2022/09/06 11:31:22;;;;;;;2.40;2.13;;;28.00;49.10;;;;;;5073294;28;20023;-70
2022/09/06 11:33:59;;;;;;;4.55;2.30;;;28.00;49.80;;;;;;5073265;28;20446;-70
2022/09/06 11:36:46;;;;;;;4.15;2.38;;;28.00;49.00;;;;;;5073276;28;20021;-70
2022/09/06 11:39:13;;;;;;;4.85;2.53;;;28.10;47.20;;;;;;5073200;28;20029;-70
2022/09/06 11:41:41;;;;;;;5.70;2.72;;;28.20;48.30;;;;;;5073155;28;20036;-70
2022/09/06 11:44:09;;;;;;;5.82;2.63;;;28.40;47.70;;;;;;5072995;28;20052;-70
2022/09/06 11:46:35;;;;;;;3.20;2.45;;;28.50;47.90;;;;;;5073129;28;20067;-71
2022/09/06 11:49:07;;;;;;;4.45;2.60;;;28.50;47.20;;;;;;5073096;28;20021;-71
2022/09/06 11:51:43;;;;;;;4.72;2.47;;;28.30;45.40;;;;;;5073232;28;20025;-71
2022/09/06 11:54:18;;;;;;;4.78;2.70;;;28.20;46.20;;;;;;5073074;28;20029;-71
2022/09/06 11:57:01;;;;;;;3.15;2.40;;;28.20;46.90;;;;;;5073025;28;20029;-70
2022/09/06 11:59:59;;;;;;;9.63;4.05;;;28.40;47.20;;;;;;5073013;28;20036;-70
2022/09/06 12:02:36;;;;;;;3.70;2.10;;;28.40;47.10;;;;;;5072522;28;20045;-70
2022/09/06 12:05:05;;;;;;;6.18;2.70;;;28.50;47.10;;;;;;5072994;28;20025;-70
2022/09/06 12:07:33;;;;;;;6.93;2.90;;;28.40;47.20;;;;;;5073722;28;20021;-71
2022/09/06 12:10:38;;;;;;;4.32;2.55;;;28.40;47.70;;;;;;5076956;28;20033;-71
2022/09/06 12:13:47;;;;;;;4.38;2.50;;;28.60;46.20;;;;;;5072728;28;20044;-71
2022/09/06 12:16:14;;;;;;;6.95;2.83;;;28.80;45.40;;;;;;5076844;28;20028;-71
2022/09/06 12:18:46;;;;;;;5.15;2.30;;;28.80;43.70;;;;;;5076777;28;20021;-71
2022/09/06 12:21:31;;;;;;;3.28;2.50;;;28.90;43.00;;;;;;5076869;28;20029;-71
2022/09/06 12:23:58;;;;;;;4.38;2.40;;;28.90;42.30;;;;;;5076609;28;20094;-70
2022/09/06 12:27:07;;;;;;;4.30;2.38;;;28.80;44.50;;;;;;5076646;28;20021;-71
2022/09/06 12:29:32;;;;;;;4.53;2.55;;;28.80;43.30;;;;;;5076544;28;20021;-71
2022/09/06 12:32:02;;;;;;;2.92;2.53;;;28.70;44.00;;;;;;5076597;28;20021;-71
2022/09/06 12:34:32;;;;;;;4.75;2.40;;;28.70;44.70;;;;;;5076566;28;20056;-71
2022/09/06 12:37:05;;;;;;;4.57;2.00;;;28.80;43.10;;;;;;5076451;28;20057;-70
2022/09/06 12:39:30;;;;;;;4.78;2.13;;;29.00;42.50;;;;;;5076424;28;20029;-71
2022/09/06 12:42:00;;;;;;;4.57;2.33;;;29.20;42.60;;;;;;5076341;28;20027;-71
2022/09/06 12:44:47;;;;;;;4.85;2.83;;;29.30;41.50;;;;;;5076310;28;20025;-71
2022/09/06 12:47:36;;;;;;;5.22;1.98;;;29.40;40.20;;;;;;5076259;28;20028;-71
2022/09/06 12:50:16;;;;;;;5.25;2.00;;;29.50;41.70;;;;;;5075349;28;20025;-71
2022/09/06 12:52:59;;;;;;;4.72;2.00;;;29.60;40.90;;;;;;5076194;28;20048;-71
2022/09/06 12:55:32;;;;;;;3.75;2.28;;;29.60;40.10;;;;;;5076091;28;20118;-71
2022/09/06 12:58:10;;;;;;;4.03;2.20;;;29.80;40.70;;;;;;5076058;28;20076;-71
2022/09/06 13:00:45;;;;;;;4.95;2.00;;;29.80;40.50;;;;;;5076031;28;20017;-71
2022/09/06 13:03:45;;;;;;;3.03;1.95;;;29.90;38.90;;;;;;5075763;28;20124;-71
2022/09/06 13:06:19;;;;;;;4.65;1.90;;;29.90;38.20;;;;;;5064313;28;20039;-71
2022/09/06 13:08:50;;;;;;;6.07;2.22;;;29.90;38.40;;;;;;5076084;28;20039;-71
2022/09/06 13:11:22;;;;;;;2.93;1.93;;;29.90;38.10;;;;;;5075999;28;20017;-71